createdAt,value
2022-12-08T00:00:02.334Z,99312.44
2022-12-08T00:02:30.170Z,99319.41
2022-12-08T00:05:15.483Z,99307.22
2022-12-08T00:08:02.048Z,99307.25
2022-12-08T00:13:17.577Z,99293.38
2022-12-08T00:15:45.329Z,99294.25
2022-12-08T00:18:13.006Z,99283.78
2022-12-08T00:20:40.717Z,99290.75
2022-12-08T00:23:10.121Z,99289.03
2022-12-08T00:28:05.914Z,99258.69
2022-12-08T00:30:33.549Z,99264.72
2022-12-08T00:33:01.297Z,99265.59
2022-12-08T00:35:28.936Z,99272.53
2022-12-08T00:38:00.865Z,99261.28
2022-12-08T00:40:30.447Z,99269.06
2022-12-08T00:42:58.099Z,99246.56
2022-12-08T00:45:25.907Z,99268.19
2022-12-08T00:47:53.685Z,99261.25
2022-12-08T00:50:21.547Z,99254.34
2022-12-08T00:52:49.214Z,99258.69
2022-12-08T00:55:17.085Z,99257.81
2022-12-08T00:57:46.114Z,99230.09
2022-12-08T01:00:14.554Z,99246.53
2022-12-08T01:02:42.323Z,99253.47
2022-12-08T01:05:10.414Z,99239.59
2022-12-08T01:07:38.110Z,99250.00
2022-12-08T01:10:07.337Z,99260.41
2022-12-08T01:12:35.118Z,99216.22
2022-12-08T01:15:04.458Z,99252.56
2022-12-08T01:17:32.097Z,99249.97
2022-12-08T01:20:00.155Z,99250.84
2022-12-08T01:22:27.795Z,99244.78
2022-12-08T01:24:55.571Z,99248.25
2022-12-08T01:27:23.348Z,99252.59
2022-12-08T01:29:51.595Z,99248.25
2022-12-08T01:32:20.695Z,99241.31
2022-12-08T01:34:48.419Z,99246.50
2022-12-08T01:37:16.069Z,99244.78
2022-12-08T01:39:44.011Z,99243.06
2022-12-08T01:42:20.362Z,99243.94
2022-12-08T01:44:54.428Z,99236.13
2022-12-08T01:47:24.147Z,99240.44
2022-12-08T01:49:52.059Z,99243.03
2022-12-08T01:52:22.536Z,99256.94
2022-12-08T01:54:51.515Z,99239.56
2022-12-08T01:57:21.735Z,99235.22
2022-12-08T01:59:51.508Z,99239.56
2022-12-08T02:02:19.333Z,99238.69
2022-12-08T02:04:48.573Z,99239.56
2022-12-08T02:07:16.301Z,99232.63
2022-12-08T02:09:53.311Z,99192.78
2022-12-08T02:12:20.990Z,99206.66
2022-12-08T02:14:48.812Z,99183.25
2022-12-08T02:17:23.505Z,99213.59
2022-12-08T02:20:07.482Z,99222.25
2022-12-08T02:22:38.591Z,99163.38
2022-12-08T02:25:09.874Z,99164.22
2022-12-08T02:27:42.172Z,99165.97
2022-12-08T02:30:17.039Z,99202.28
2022-12-08T02:33:08.777Z,99197.94
2022-12-08T02:35:38.128Z,99195.38
2022-12-08T02:38:08.925Z,99192.75
2022-12-08T02:40:37.864Z,99189.28
2022-12-08T02:43:08.961Z,99170.28
2022-12-08T02:45:38.481Z,99138.22
2022-12-08T02:48:08.276Z,99188.41
2022-12-08T02:50:36.003Z,99182.34
2022-12-08T02:55:38.260Z,99171.97
2022-12-08T02:58:19.289Z,99175.47
2022-12-08T03:00:52.828Z,99153.78
2022-12-08T03:03:23.610Z,99127.81
2022-12-08T03:05:58.404Z,99143.38
2022-12-08T03:08:29.975Z,99165.00
2022-12-08T03:10:59.727Z,99139.03
2022-12-08T03:13:29.990Z,99156.28
2022-12-08T03:15:58.934Z,99165.81
2022-12-08T03:18:29.638Z,99150.28
2022-12-08T03:20:57.427Z,99132.09
2022-12-08T03:23:25.086Z,99125.16
2022-12-08T03:25:56.785Z,99125.94
2022-12-08T03:28:24.671Z,99140.69
2022-12-08T03:30:53.393Z,99137.25
2022-12-08T03:33:23.601Z,99133.75
2022-12-08T03:35:51.400Z,99125.13
2022-12-08T03:38:19.099Z,99123.38
2022-12-08T03:41:07.961Z,99124.25
2022-12-08T03:43:37.026Z,99117.34
2022-12-08T03:46:04.829Z,99117.34
2022-12-08T03:48:32.527Z,99107.78
2022-12-08T03:51:00.284Z,99110.38
2022-12-08T03:53:28.007Z,99102.59
2022-12-08T03:55:55.853Z,99106.94
2022-12-08T03:58:23.611Z,99094.75
2022-12-08T04:00:53.725Z,99092.16
2022-12-08T04:03:21.493Z,99056.69
2022-12-08T04:05:49.288Z,99089.56
2022-12-08T04:08:17.004Z,99084.34
2022-12-08T04:10:44.839Z,99088.69
2022-12-08T04:13:12.548Z,99077.44
2022-12-08T04:15:40.352Z,99085.22
2022-12-08T04:18:09.438Z,99084.38
2022-12-08T04:20:39.979Z,99078.34
2022-12-08T04:23:07.658Z,99080.06
2022-12-08T04:25:35.594Z,99073.97
2022-12-08T04:28:03.367Z,99076.56
2022-12-08T04:30:31.097Z,99070.50
2022-12-08T04:32:58.843Z,99067.91
2022-12-08T04:35:27.884Z,99050.59
2022-12-08T04:37:55.765Z,99054.00
2022-12-08T04:40:23.598Z,99054.88
2022-12-08T04:42:51.289Z,99062.66
2022-12-08T04:45:19.143Z,99061.78
2022-12-08T04:47:46.983Z,99049.66
2022-12-08T04:50:14.661Z,99060.91
2022-12-08T04:52:43.824Z,99065.28
2022-12-08T04:55:11.508Z,99059.16
2022-12-08T04:57:39.311Z,99056.59
2022-12-08T05:00:08.331Z,99025.47
2022-12-08T05:02:36.131Z,99047.09
2022-12-08T05:05:03.891Z,99038.41
2022-12-08T05:07:31.634Z,99022.91
2022-12-08T05:10:00.827Z,99040.09
2022-12-08T05:12:28.687Z,99049.66
2022-12-08T05:14:56.366Z,99063.53
2022-12-08T05:17:24.334Z,99045.31
2022-12-08T05:19:52.012Z,99045.31
2022-12-08T05:22:19.735Z,99048.84
2022-12-08T05:24:48.036Z,99039.28
2022-12-08T05:27:17.129Z,99043.59
2022-12-08T05:29:44.984Z,99042.69
2022-12-08T05:32:12.669Z,99051.41
2022-12-08T05:34:40.367Z,99041.00
2022-12-08T05:37:08.093Z,99040.16
2022-12-08T05:39:35.822Z,99043.63
2022-12-08T05:42:03.661Z,99038.44
2022-12-08T05:44:32.861Z,99041.91
2022-12-08T05:47:00.534Z,99036.69
2022-12-08T05:49:29.542Z,99033.25
2022-12-08T05:51:57.272Z,99038.44
2022-12-08T05:54:33.260Z,99021.19
2022-12-08T05:57:00.998Z,98946.81
2022-12-08T05:59:28.914Z,99026.31
2022-12-08T06:01:58.061Z,99024.59
2022-12-08T06:04:25.929Z,99017.63
2022-12-08T06:06:53.732Z,98977.88
2022-12-08T06:09:21.817Z,99013.28
2022-12-08T06:11:49.630Z,99015.88
2022-12-08T06:14:17.464Z,99011.53
2022-12-08T06:16:45.360Z,99013.25
2022-12-08T06:19:14.686Z,98990.81
2022-12-08T06:21:42.645Z,99008.00
2022-12-08T06:24:10.643Z,99009.75
2022-12-08T06:26:40.396Z,99001.97
2022-12-08T06:29:17.018Z,98785.16
2022-12-08T06:31:54.366Z,98776.53
2022-12-08T06:34:51.643Z,98985.63
2022-12-08T06:41:20.626Z,99006.19
2022-12-08T06:44:37.287Z,99001.00
2022-12-08T06:48:17.484Z,98995.34
2022-12-08T06:54:09.532Z,98966.72
2022-12-08T06:59:41.870Z,99122.53
2022-12-08T07:02:41.574Z,99001.03
2022-12-08T07:05:27.478Z,98732.59
2022-12-08T07:11:22.184Z,98822.56
2022-12-08T07:14:06.174Z,98718.00
2022-12-08T07:17:59.822Z,99060.06
2022-12-08T07:20:37.744Z,98813.06
2022-12-08T07:23:11.798Z,98744.63
2022-12-08T07:29:45.709Z,98819.78
2022-12-08T07:32:27.485Z,98790.50
2022-12-08T07:35:18.369Z,98735.31
2022-12-08T07:45:04.412Z,98790.63
2022-12-08T07:55:49.156Z,98838.00
2022-12-08T07:59:06.542Z,98986.88
2022-12-08T08:02:42.963Z,98891.59
2022-12-08T08:05:38.869Z,98919.16
2022-12-08T08:08:39.057Z,98913.91
2022-12-08T08:11:20.959Z,98949.50
2022-12-08T08:13:51.294Z,98611.81
2022-12-08T08:20:32.660Z,98849.22
2022-12-08T08:23:50.392Z,98843.13
2022-12-08T08:29:51.091Z,99035.91
2022-12-08T08:32:46.450Z,98766.38
2022-12-08T08:35:18.986Z,98931.31
2022-12-08T08:42:27.933Z,98870.00
2022-12-08T08:44:55.896Z,98979.84
2022-12-08T08:47:59.894Z,98865.75
2022-12-08T08:50:40.005Z,98872.72
2022-12-08T08:53:55.130Z,98772.47
2022-12-08T08:56:47.592Z,98949.47
2022-12-08T09:06:24.328Z,98759.47
2022-12-08T09:08:52.703Z,98958.16
2022-12-08T09:11:50.599Z,98716.28
2022-12-08T09:25:06.803Z,98790.63
2022-12-08T09:27:34.952Z,98872.66
2022-12-08T09:30:58.392Z,98888.09
2022-12-08T09:33:53.006Z,98466.94
2022-12-08T09:36:25.092Z,98903.81
2022-12-08T09:39:19.111Z,98603.22
2022-12-08T09:42:01.761Z,99079.25
2022-12-08T09:45:29.442Z,98876.06
2022-12-08T09:51:43.244Z,98837.19
2022-12-08T09:54:32.991Z,99019.47
2022-12-08T09:57:31.945Z,98615.34
2022-12-08T10:03:59.860Z,98660.19
2022-12-08T10:07:01.426Z,98819.13
2022-12-08T10:10:16.703Z,99023.72
2022-12-08T10:12:39.229Z,98743.00
2022-12-08T10:16:19.125Z,98698.94
2022-12-08T10:18:52.282Z,98701.53
2022-12-08T10:21:25.885Z,98741.28
2022-12-08T10:24:00.728Z,98656.75
2022-12-08T10:27:15.583Z,98674.00
2022-12-08T10:29:46.619Z,98929.50
2022-12-08T10:32:20.015Z,98932.19
2022-12-08T10:35:26.264Z,98904.31
2022-12-08T10:38:06.526Z,98802.66
2022-12-08T10:41:45.276Z,98992.38
2022-12-08T10:47:32.422Z,98787.75
2022-12-08T10:50:21.055Z,98706.63
2022-12-08T10:52:56.144Z,99058.28
2022-12-08T10:55:24.846Z,98561.63
2022-12-08T10:58:27.145Z,98778.09
2022-12-08T11:01:11.320Z,99023.56
2022-12-08T11:03:41.044Z,99018.53
2022-12-08T11:06:15.226Z,98835.97
2022-12-08T11:08:56.349Z,99006.59
2022-12-08T11:11:38.493Z,98878.25
2022-12-08T11:14:07.942Z,98986.19
2022-12-08T11:16:38.307Z,98920.66
2022-12-08T11:19:07.653Z,98675.38
2022-12-08T11:21:37.983Z,98604.84
2022-12-08T11:24:23.408Z,98957.09
2022-12-08T11:26:53.581Z,98758.47
2022-12-08T11:29:21.900Z,98739.78
2022-12-08T11:31:53.205Z,98508.88
2022-12-08T11:34:22.841Z,98603.59
2022-12-08T11:36:52.949Z,98979.31
2022-12-08T11:41:16.170Z,98777.22
2022-12-08T11:43:18.118Z,98558.97
2022-12-08T11:46:46.401Z,98951.72
2022-12-08T11:49:15.941Z,98828.84
2022-12-08T11:51:45.814Z,98956.09
2022-12-08T11:54:20.334Z,98595.97
2022-12-08T11:56:49.239Z,99005.66
2022-12-08T11:59:26.345Z,98646.81
2022-12-08T12:01:57.439Z,99109.03
2022-12-08T12:04:29.429Z,98843.28
2022-12-08T12:07:39.215Z,98862.38
2022-12-08T12:10:22.526Z,98974.19
2022-12-08T12:13:20.813Z,98946.66
2022-12-08T12:16:14.038Z,98728.78
2022-12-08T12:22:23.232Z,98939.72
2022-12-08T12:24:53.986Z,98972.72
2022-12-08T12:27:29.143Z,99037.00
2022-12-08T12:30:01.994Z,98598.31
2022-12-08T12:32:55.111Z,98685.78
2022-12-08T12:35:44.668Z,98940.16
2022-12-08T12:40:48.679Z,98924.97
2022-12-08T12:43:28.943Z,98925.81
2022-12-08T12:46:29.877Z,98925.81
2022-12-08T12:48:58.204Z,98931.06
2022-12-08T12:51:46.892Z,98928.47
2022-12-08T12:54:22.190Z,98922.41
2022-12-08T12:56:52.996Z,98913.81
2022-12-08T12:59:36.526Z,98929.34
2022-12-08T13:02:04.231Z,98916.38
2022-12-08T13:04:33.761Z,98909.44
2022-12-08T13:07:01.670Z,98917.22
2022-12-08T13:09:32.789Z,98918.97
2022-12-08T13:12:03.239Z,98917.19
2022-12-08T13:14:33.082Z,98899.94
2022-12-08T13:17:01.513Z,98906.81
2022-12-08T13:19:48.814Z,98874.00
2022-12-08T13:22:47.657Z,98907.63
2022-12-08T13:25:57.040Z,98914.59
2022-12-08T13:28:28.136Z,98910.31
2022-12-08T13:30:57.649Z,98904.28
2022-12-08T13:33:27.498Z,98889.72
2022-12-08T13:36:01.695Z,98904.28
2022-12-08T13:38:30.728Z,98900.88
2022-12-08T13:40:58.544Z,98856.97
2022-12-08T13:43:45.190Z,98895.72
2022-12-08T13:57:33.759Z,98897.25
2022-12-08T14:00:03.839Z,98892.91
2022-12-08T14:02:35.805Z,98894.69
2022-12-08T14:05:21.741Z,98884.31
2022-12-08T14:07:53.664Z,98877.41
2022-12-08T14:10:22.153Z,98895.53
2022-12-08T14:12:53.550Z,98829.97
2022-12-08T14:15:22.603Z,98903.34
2022-12-08T14:21:34.430Z,98892.09
2022-12-08T14:24:04.075Z,98900.78
2022-12-08T14:26:33.860Z,98906.00
2022-12-08T14:29:01.836Z,98898.22
2022-12-08T14:31:30.954Z,98880.09
2022-12-08T14:33:58.770Z,98902.56
2022-12-08T14:36:26.823Z,98894.78
2022-12-08T14:38:54.918Z,98899.09
2022-12-08T14:41:26.486Z,98899.94
2022-12-08T14:43:59.566Z,98898.28
2022-12-08T14:46:27.468Z,98899.16
2022-12-08T14:48:58.097Z,98905.25
2022-12-08T14:51:29.634Z,98882.03
2022-12-08T14:53:58.510Z,98907.06
2022-12-08T14:56:28.079Z,98907.94
2022-12-08T14:59:35.717Z,98912.31
2022-12-08T15:02:14.976Z,98905.38
2022-12-08T15:04:45.149Z,98897.63
2022-12-08T15:07:14.230Z,98901.91
2022-12-08T15:09:43.038Z,98936.63
2022-12-08T15:12:26.368Z,98903.63
2022-12-08T15:14:56.633Z,98892.66
2022-12-08T15:17:32.862Z,98898.63
2022-12-08T15:20:02.032Z,98860.50
2022-12-08T15:22:30.541Z,98899.25
2022-12-08T15:24:58.312Z,98907.06
2022-12-08T15:27:26.390Z,98859.72
2022-12-08T15:29:55.347Z,98908.16
2022-12-08T15:32:24.021Z,98911.63
2022-12-08T15:34:51.671Z,98909.72
2022-12-08T15:37:22.753Z,98902.78
2022-12-08T15:39:50.572Z,98844.06
2022-12-08T15:42:18.462Z,98910.59
2022-12-08T15:44:46.113Z,98912.31
2022-12-08T15:47:16.620Z,98903.69
2022-12-08T15:49:44.314Z,98904.63
2022-12-08T15:52:14.067Z,98906.47
2022-12-08T15:54:43.087Z,98914.31
2022-12-08T15:57:30.053Z,98912.63
2022-12-08T16:00:30.301Z,98898.81
2022-12-08T16:03:34.319Z,98913.53
2022-12-08T16:06:10.173Z,98908.38
2022-12-08T16:08:49.497Z,98907.50
2022-12-08T16:12:05.395Z,98910.94
2022-12-08T16:17:19.601Z,98904.94
2022-12-08T16:19:47.591Z,98910.13
2022-12-08T16:22:51.624Z,98911.00
2022-12-08T16:25:17.617Z,98915.34
2022-12-08T16:30:35.650Z,98914.44
2022-12-08T16:33:03.464Z,98907.53
2022-12-08T16:35:31.501Z,98913.56
2022-12-08T16:37:59.207Z,98902.31
2022-12-08T16:40:26.932Z,98907.50
2022-12-08T16:42:55.077Z,98909.22
2022-12-08T16:45:23.759Z,98915.31
2022-12-08T16:47:52.510Z,98909.22
2022-12-08T16:50:21.112Z,98904.00
2022-12-08T16:52:48.973Z,98902.25
2022-12-08T16:55:17.486Z,98898.84
2022-12-08T16:57:45.457Z,98906.63
2022-12-08T17:00:17.090Z,98903.16
2022-12-08T17:02:45.160Z,98905.75
2022-12-08T17:05:13.783Z,98898.00
2022-12-08T17:07:42.009Z,98910.09
2022-12-08T17:10:11.088Z,98913.53
2022-12-08T17:12:38.956Z,98917.00
2022-12-08T17:15:08.552Z,98904.00
2022-12-08T17:17:38.343Z,98911.00
2022-12-08T17:20:07.932Z,98921.34
2022-12-08T17:22:36.142Z,98910.94
2022-12-08T17:25:04.010Z,98911.81
2022-12-08T17:27:31.668Z,98911.78
2022-12-08T17:29:59.545Z,98909.19
2022-12-08T17:32:27.322Z,98914.38
2022-12-08T17:35:03.792Z,98910.06
2022-12-08T17:37:31.773Z,98905.69
2022-12-08T17:39:59.562Z,98914.38
2022-12-08T17:42:27.431Z,98915.22
2022-12-08T17:44:55.352Z,98910.91
2022-12-08T17:47:24.272Z,98916.94
2022-12-08T17:49:52.244Z,98948.19
2022-12-08T17:52:21.348Z,98914.38
2022-12-08T17:54:49.039Z,98917.88
2022-12-08T17:57:16.816Z,98884.22
2022-12-08T17:59:44.764Z,98909.25
2022-12-08T18:02:12.647Z,98912.72
2022-12-08T18:04:41.505Z,98916.19
2022-12-08T18:07:09.155Z,98912.75
2022-12-08T18:09:38.390Z,98911.00
2022-12-08T18:12:06.376Z,98904.09
2022-12-08T18:14:34.271Z,98905.84
2022-12-08T18:17:02.073Z,98892.81
2022-12-08T18:19:29.981Z,98902.34
2022-12-08T18:21:57.783Z,98903.25
2022-12-08T18:24:25.619Z,98908.44
2022-12-08T18:26:56.167Z,98906.72
2022-12-08T18:29:24.082Z,98905.84
2022-12-08T18:31:52.125Z,98904.97
2022-12-08T18:34:19.974Z,98899.75
2022-12-08T18:36:47.711Z,98908.41
2022-12-08T18:39:21.601Z,98911.91
2022-12-08T18:41:49.558Z,98897.19
2022-12-08T18:44:19.024Z,98907.59
2022-12-08T18:46:46.784Z,98913.63
2022-12-08T18:49:16.973Z,98908.44
2022-12-08T18:51:44.854Z,98913.63
2022-12-08T18:54:13.073Z,98915.38
2022-12-08T18:56:40.988Z,98910.19
2022-12-08T18:59:10.494Z,98870.50
2022-12-08T19:01:40.454Z,98905.88
2022-12-08T19:06:57.014Z,98915.44
2022-12-08T19:09:26.670Z,98906.72
2022-12-08T19:11:54.944Z,98892.00
2022-12-08T19:14:27.739Z,98910.16
2022-12-08T19:16:58.044Z,98888.53
2022-12-08T19:19:26.160Z,98907.53
2022-12-08T19:21:54.068Z,98912.72
2022-12-08T19:24:21.911Z,98910.16
2022-12-08T19:26:49.831Z,98904.97
2022-12-08T19:29:17.888Z,98911.88
2022-12-08T19:31:45.723Z,98911.03
2022-12-08T19:34:15.120Z,98920.56
2022-12-08T19:36:43.348Z,98917.97
2022-12-08T19:39:31.835Z,98911.03
2022-12-08T19:42:17.181Z,98913.66
2022-12-08T19:47:22.252Z,98912.84
2022-12-08T19:49:51.553Z,98918.03
2022-12-08T19:52:19.421Z,98916.31
2022-12-08T19:54:47.443Z,98905.06
2022-12-08T19:57:15.959Z,98905.06
2022-12-08T19:59:43.758Z,98911.97
2022-12-08T20:02:11.846Z,98912.84
2022-12-08T20:04:39.841Z,98913.72
2022-12-08T20:07:09.002Z,98912.81
2022-12-08T20:09:38.988Z,98916.31
2022-12-08T20:12:08.203Z,98918.06
2022-12-08T20:14:37.585Z,98899.88
2022-12-08T20:17:08.013Z,98918.03
2022-12-08T20:19:35.890Z,98913.69
2022-12-08T20:22:03.840Z,98917.19
2022-12-08T20:24:33.101Z,98906.84
2022-12-08T20:27:00.936Z,98918.94
2022-12-08T20:29:28.800Z,98905.13
2022-12-08T20:31:56.835Z,98896.53
2022-12-08T20:34:24.871Z,98885.31
2022-12-08T20:36:52.704Z,98875.78
2022-12-08T20:39:20.486Z,98893.09
2022-12-08T20:41:52.110Z,98922.47
2022-12-08T20:44:19.939Z,98907.78
2022-12-08T20:46:49.543Z,98924.19
2022-12-08T20:49:18.762Z,98925.94
2022-12-08T20:51:46.922Z,98923.38
2022-12-08T20:54:14.958Z,98934.63
2022-12-08T20:56:48.080Z,98938.03
2022-12-08T20:59:18.280Z,98913.00
2022-12-08T21:01:47.370Z,98942.41
2022-12-08T21:04:15.536Z,98942.38
2022-12-08T21:06:43.986Z,98938.06
2022-12-08T21:09:12.054Z,98929.41
2022-12-08T21:11:40.170Z,98932.00
2022-12-08T21:14:08.063Z,98929.41
2022-12-08T21:16:37.492Z,98926.78
2022-12-08T21:19:05.917Z,98930.28
2022-12-08T21:21:34.171Z,98928.56
2022-12-08T21:24:02.199Z,98925.94
2022-12-08T21:26:30.061Z,98932.03
2022-12-08T21:28:58.929Z,98928.56
2022-12-08T21:31:29.200Z,98931.19
2022-12-08T21:33:58.564Z,98932.91
2022-12-08T21:36:26.353Z,98939.81
2022-12-08T21:38:54.662Z,98937.25
2022-12-08T21:41:38.017Z,98938.97
2022-12-08T21:44:06.016Z,98934.66
2022-12-08T21:46:33.903Z,98881.00
2022-12-08T21:49:03.252Z,98927.75
2022-12-08T21:51:31.424Z,98937.28
2022-12-08T21:53:59.361Z,98930.31
2022-12-08T21:56:27.379Z,98923.41
2022-12-08T21:58:55.259Z,98938.16
2022-12-08T22:01:23.116Z,98918.25
2022-12-08T22:03:51.114Z,98894.00
2022-12-08T22:06:20.371Z,98932.91
2022-12-08T22:08:53.797Z,98933.78
2022-12-08T22:11:21.786Z,98943.31
2022-12-08T22:13:50.819Z,98928.59
2022-12-08T22:16:18.841Z,98936.41
2022-12-08T22:18:46.749Z,98926.91
2022-12-08T22:21:16.712Z,98933.78
2022-12-08T22:23:46.321Z,98934.69
2022-12-08T22:26:14.432Z,98919.09
2022-12-08T22:28:44.434Z,98910.47
2022-12-08T22:31:12.998Z,98938.97
2022-12-08T22:33:41.397Z,98944.19
2022-12-08T22:36:14.502Z,98942.44
2022-12-08T22:38:42.467Z,98936.38
2022-12-08T22:41:11.811Z,98935.47
2022-12-08T22:43:40.085Z,98937.19
2022-12-08T22:46:12.157Z,98932.03
2022-12-08T22:48:40.751Z,98926.84
2022-12-08T22:51:08.932Z,98927.75
2022-12-08T22:53:37.027Z,98935.56
2022-12-08T22:56:05.320Z,98927.75
2022-12-08T22:58:34.437Z,98933.81
2022-12-08T23:01:02.215Z,98930.38
2022-12-08T23:03:30.089Z,98927.78
2022-12-08T23:05:58.194Z,98912.25
2022-12-08T23:08:26.070Z,98924.34
2022-12-08T23:10:54.258Z,98919.19
2022-12-08T23:13:22.434Z,98917.47
2022-12-08T23:15:51.522Z,98919.22
2022-12-08T23:18:20.003Z,98916.66
2022-12-08T23:20:47.955Z,98922.69
2022-12-08T23:23:16.059Z,98926.16
2022-12-08T23:25:43.938Z,98928.75
2022-12-08T23:28:11.899Z,98911.47
2022-12-08T23:30:40.430Z,98918.38
2022-12-08T23:33:09.491Z,98933.91
2022-12-08T23:35:38.523Z,98920.06
2022-12-08T23:38:06.220Z,98917.47
2022-12-08T23:40:34.270Z,98925.25
2022-12-08T23:43:02.037Z,98922.66
2022-12-08T23:45:29.880Z,98924.38
2022-12-08T23:47:58.104Z,98923.53
2022-12-08T23:50:27.229Z,98919.19
2022-12-08T23:52:54.864Z,98913.13
2022-12-08T23:55:22.662Z,98914.84
2022-12-08T23:57:50.296Z,98906.22
